Aeroporto :
LOGIN :

Iscrizione | Disclaimer

   EN    FR    IT 

 










Sommario :    VFR   VFR Marginale   IFR   IFR Intensivo   IFR Molto Intensivo
Visibilità : 
Base nubi : 
>= 8 km
>= 3000ft
5 / 8 km
1000 / 3000 ft
1500m / 5 km
500 / 1000 ft
800 / 1500m
200 / 500 ft
< 800m
< 200 ft
Simboli :   Temporali  Nebbia  Neve Forte  Precipitazioni Forti  Vento > 20 kt
SIGMETs :   Varie  Temporali  Ghiacco  Turbolenza  Onda orograficha  Ceneri Vulcaniche







- Altitudine del aeroporto : 289 ft
- Carte del aeroporto


LFYR - Romorantin Pruniers

ULTIMO METAR :
  • 222230Z AUTO 04004KT 360V070 CAVOK 14/08 Q1027

METARs OBSOLETI :
  • 222200Z AUTO VRB03KT CAVOK 13/07 Q1027
  • 222130Z AUTO VRB03KT CAVOK 15/08 Q1027
  • 222100Z AUTO 03003KT 350V060 CAVOK 16/08 Q1027
  • 222030Z AUTO 03003KT 350V060 CAVOK 17/07 Q1027
  • 222000Z AUTO 04004KT 360V060 CAVOK 18/07 Q1026

Previsioni scadute.
Nessun NOTAM noto per questo aeroporto.



MetMap, La meteo Aeronautica in un colpo d'occhio ! - Copyright ORBIFLY Dicembre 2007 - Disclaimer

ORBIFLY MET'MAP TEAM :

Programmazione e sviluppo : Alexandra Zaïnal
Concezione e sviluppo : Baudouin d'Aumeries
Co-Programmazione e sviluppo : Marc-Olivier Méhu
Supporto tecnico e logistico : Manuel Goepfert
Aiuto per la traduzione : Arnaldo La Scala

Contatto : metmap@orbifly.com




FONTI E CREDITI :

   NOAA